createdAt,value
2023-02-13T00:00:57.290Z,99.99
2023-02-13T00:01:56.913Z,99.99
2023-02-13T00:02:56.903Z,99.99
2023-02-13T00:03:56.871Z,99.99
2023-02-13T00:04:56.736Z,99.99
2023-02-13T00:05:56.683Z,99.99
2023-02-13T00:06:56.609Z,99.99
2023-02-13T00:07:57.378Z,99.99
2023-02-13T00:08:56.521Z,99.99
2023-02-13T00:09:56.409Z,99.99
2023-02-13T00:10:56.679Z,99.99
2023-02-13T00:11:56.312Z,99.99
2023-02-13T00:12:56.293Z,99.99
2023-02-13T00:13:56.194Z,99.99
2023-02-13T00:14:56.139Z,99.99
2023-02-13T00:15:56.130Z,99.99
2023-02-13T00:16:56.041Z,99.99
2023-02-13T00:17:55.966Z,99.99
2023-02-13T00:18:55.884Z,99.99
2023-02-13T00:19:55.862Z,99.99
2023-02-13T00:20:56.177Z,99.99
2023-02-13T00:21:55.749Z,99.99
2023-02-13T00:22:55.667Z,99.99
2023-02-13T00:23:55.592Z,99.99
2023-02-13T00:24:55.549Z,99.99
2023-02-13T00:25:55.515Z,99.99
2023-02-13T00:26:55.448Z,99.99
2023-02-13T00:27:55.398Z,99.99
2023-02-13T00:28:55.295Z,99.99
2023-02-13T00:29:55.274Z,99.99
2023-02-13T00:30:55.489Z,99.99
2023-02-13T00:31:55.244Z,99.99
2023-02-13T00:32:55.083Z,99.99
2023-02-13T00:33:55.024Z,99.99
2023-02-13T00:34:54.971Z,99.99
2023-02-13T00:35:54.912Z,99.99
2023-02-13T00:36:54.872Z,99.99
2023-02-13T00:37:54.798Z,99.99
2023-02-13T00:38:54.726Z,99.99
2023-02-13T00:39:54.669Z,99.99
2023-02-13T00:40:54.849Z,99.99
2023-02-13T00:41:54.577Z,99.99
2023-02-13T00:42:54.500Z,99.99
2023-02-13T00:43:54.427Z,99.99
2023-02-13T00:44:54.422Z,99.99
2023-02-13T00:45:54.338Z,99.99
2023-02-13T00:46:54.273Z,99.99
2023-02-13T00:47:54.196Z,99.99
2023-02-13T00:48:54.142Z,99.99
2023-02-13T00:49:54.095Z,99.99
2023-02-13T00:50:54.038Z,99.99
2023-02-13T00:51:54.016Z,99.99
2023-02-13T00:52:53.916Z,99.99
2023-02-13T00:53:53.849Z,99.99
2023-02-13T00:54:53.788Z,99.99
2023-02-13T00:55:53.741Z,99.99
2023-02-13T00:56:53.689Z,99.99
2023-02-13T00:57:53.640Z,99.99
2023-02-13T00:58:53.586Z,99.99
2023-02-13T00:59:53.498Z,99.99
2023-02-13T01:00:53.455Z,99.99
2023-02-13T01:01:53.432Z,99.99
2023-02-13T01:02:53.322Z,99.99
2023-02-13T01:03:53.345Z,99.99
2023-02-13T01:04:53.198Z,99.99
2023-02-13T01:05:53.144Z,99.99
2023-02-13T01:06:53.073Z,99.99
2023-02-13T01:07:53.040Z,99.99
2023-02-13T01:08:52.994Z,99.99
2023-02-13T01:09:52.963Z,99.99
2023-02-13T01:10:52.826Z,99.99
2023-02-13T01:11:52.829Z,99.99
2023-02-13T01:12:52.731Z,99.99
2023-02-13T01:13:52.670Z,99.99
2023-02-13T01:14:52.632Z,99.99
2023-02-13T01:15:52.572Z,99.99
2023-02-13T01:16:52.497Z,99.99
2023-02-13T01:17:52.427Z,99.99
2023-02-13T01:18:52.418Z,99.99
2023-02-13T01:19:52.303Z,99.99
2023-02-13T01:20:52.264Z,99.99
2023-02-13T01:21:52.228Z,99.99
2023-02-13T01:22:52.153Z,99.99
2023-02-13T01:23:52.081Z,99.99
2023-02-13T01:24:52.042Z,99.99
2023-02-13T01:25:51.983Z,99.99
2023-02-13T01:26:51.948Z,99.99
2023-02-13T01:27:51.869Z,99.99
2023-02-13T01:28:51.794Z,99.99
2023-02-13T01:29:51.749Z,99.99
2023-02-13T01:30:55.414Z,99.99
2023-02-13T01:31:51.735Z,99.99
2023-02-13T01:32:51.594Z,99.99
2023-02-13T01:33:51.514Z,99.99
2023-02-13T01:34:51.463Z,99.99
2023-02-13T01:35:51.390Z,99.99
2023-02-13T01:36:51.360Z,99.99
2023-02-13T01:37:51.290Z,99.99
2023-02-13T01:38:51.228Z,99.99
2023-02-13T01:39:51.124Z,99.99
2023-02-13T01:40:51.113Z,99.99
2023-02-13T01:41:51.054Z,99.99
2023-02-13T01:42:50.976Z,99.99
2023-02-13T01:43:50.915Z,99.99
2023-02-13T01:44:50.864Z,99.99
2023-02-13T01:45:50.828Z,99.99
2023-02-13T01:46:50.794Z,99.99
2023-02-13T01:47:50.677Z,99.99
2023-02-13T01:48:50.598Z,99.99
2023-02-13T01:49:50.597Z,99.99
2023-02-13T01:50:50.513Z,99.99
2023-02-13T01:51:50.457Z,99.99
2023-02-13T01:52:50.374Z,99.99
2023-02-13T01:53:50.346Z,99.99
2023-02-13T01:54:50.247Z,99.99
2023-02-13T01:55:50.250Z,99.99
2023-02-13T01:56:50.227Z,99.99
2023-02-13T01:57:50.114Z,99.99
2023-02-13T01:58:50.086Z,99.99
2023-02-13T01:59:49.978Z,99.99
2023-02-13T02:00:50.004Z,99.99
2023-02-13T02:01:49.919Z,99.99
2023-02-13T02:02:49.876Z,99.99
2023-02-13T02:03:49.730Z,99.99
2023-02-13T02:04:49.679Z,99.99
2023-02-13T02:05:49.632Z,99.99
2023-02-13T02:06:49.569Z,99.99
2023-02-13T02:07:49.556Z,99.99
2023-02-13T02:08:49.473Z,99.99
2023-02-13T02:09:49.396Z,99.99
2023-02-13T02:10:49.357Z,99.99
2023-02-13T02:11:49.271Z,99.99
2023-02-13T02:12:49.249Z,99.99
2023-02-13T02:13:49.162Z,99.99
2023-02-13T02:14:49.108Z,99.99
2023-02-13T02:15:49.110Z,99.99
2023-02-13T02:16:48.990Z,99.99
2023-02-13T02:17:48.940Z,99.99
2023-02-13T02:18:48.855Z,99.99
2023-02-13T02:19:48.805Z,99.99
2023-02-13T02:20:48.743Z,99.99
2023-02-13T02:21:48.682Z,99.99
2023-02-13T02:22:48.653Z,99.99
2023-02-13T02:23:48.546Z,99.99
2023-02-13T02:24:48.507Z,99.99
2023-02-13T02:25:48.473Z,99.99
2023-02-13T02:26:48.408Z,99.99
2023-02-13T02:27:48.332Z,99.99
2023-02-13T02:28:48.309Z,99.99
2023-02-13T02:29:48.247Z,99.99
2023-02-13T02:30:48.212Z,99.99
2023-02-13T02:31:48.142Z,99.99
2023-02-13T02:32:48.073Z,99.99
2023-02-13T02:33:47.985Z,99.99
2023-02-13T02:34:47.941Z,99.99
2023-02-13T02:35:47.876Z,99.99
2023-02-13T02:36:47.821Z,99.99
2023-02-13T02:37:47.787Z,99.99
2023-02-13T02:38:47.690Z,99.99
2023-02-13T02:39:47.667Z,99.99
2023-02-13T02:40:47.573Z,99.99
2023-02-13T02:41:47.531Z,99.99
2023-02-13T02:42:47.490Z,99.99
2023-02-13T02:43:47.413Z,99.99
2023-02-13T02:44:47.338Z,99.99
2023-02-13T02:45:47.321Z,99.99
2023-02-13T02:46:47.232Z,99.99
2023-02-13T02:47:47.180Z,99.99
2023-02-13T02:48:47.119Z,99.99
2023-02-13T02:49:47.068Z,99.99
2023-02-13T02:50:46.970Z,99.99
2023-02-13T02:51:46.952Z,99.99
2023-02-13T02:52:46.890Z,99.99
2023-02-13T02:53:46.817Z,99.99
2023-02-13T02:54:46.770Z,99.99
2023-02-13T02:55:46.705Z,99.99
2023-02-13T02:56:46.677Z,99.99
2023-02-13T02:57:46.579Z,99.99
2023-02-13T02:58:46.519Z,99.99
2023-02-13T02:59:46.442Z,99.99
2023-02-13T03:00:46.439Z,99.99
2023-02-13T03:01:46.349Z,99.99
2023-02-13T03:02:46.307Z,99.99
2023-02-13T03:03:46.226Z,99.99
2023-02-13T03:04:46.176Z,99.99
2023-02-13T03:05:46.127Z,99.99
2023-02-13T03:06:46.070Z,99.99
2023-02-13T03:07:46.032Z,99.99
2023-02-13T03:08:45.915Z,99.99
2023-02-13T03:09:45.859Z,99.99
2023-02-13T03:10:45.815Z,99.99
2023-02-13T03:11:45.774Z,99.99
2023-02-13T03:12:45.727Z,99.99
2023-02-13T03:13:45.654Z,99.99
2023-02-13T03:14:45.579Z,99.99
2023-02-13T03:15:45.543Z,99.99
2023-02-13T03:16:45.511Z,99.99
2023-02-13T03:17:45.439Z,99.99
2023-02-13T03:18:45.395Z,99.99
2023-02-13T03:19:45.272Z,99.99
2023-02-13T03:20:45.273Z,99.99
2023-02-13T03:21:45.182Z,99.99
2023-02-13T03:22:45.124Z,99.99
2023-02-13T03:23:45.062Z,99.99
2023-02-13T03:24:45.011Z,99.99
2023-02-13T03:25:44.974Z,99.99
2023-02-13T03:26:44.912Z,99.99
2023-02-13T03:27:44.871Z,99.99
2023-02-13T03:28:44.766Z,99.99
2023-02-13T03:29:44.701Z,99.99
2023-02-13T03:30:44.684Z,99.99
2023-02-13T03:31:44.702Z,99.99
2023-02-13T03:32:44.540Z,99.99
2023-02-13T03:33:44.480Z,99.99
2023-02-13T03:34:44.432Z,99.99
2023-02-13T03:35:44.359Z,99.99
2023-02-13T03:36:44.312Z,99.99
2023-02-13T03:37:44.241Z,99.99
2023-02-13T03:38:44.240Z,99.99
2023-02-13T03:39:44.108Z,99.99
2023-02-13T03:40:44.112Z,99.99
2023-02-13T03:41:44.010Z,99.99
2023-02-13T03:42:43.969Z,99.99
2023-02-13T03:43:43.898Z,99.99
2023-02-13T03:44:43.845Z,99.99
2023-02-13T03:45:43.973Z,99.99
2023-02-13T03:46:43.724Z,99.99
2023-02-13T03:47:43.651Z,99.99
2023-02-13T03:48:43.600Z,99.99
2023-02-13T03:49:43.570Z,99.99
2023-02-13T03:50:43.476Z,99.99
2023-02-13T03:51:43.435Z,99.99
2023-02-13T03:52:43.356Z,99.99
2023-02-13T03:53:43.318Z,99.99
2023-02-13T03:54:43.290Z,99.99
2023-02-13T03:55:43.198Z,99.99
2023-02-13T03:56:43.161Z,99.99
2023-02-13T03:57:43.114Z,99.99
2023-02-13T03:58:43.043Z,99.99
2023-02-13T03:59:42.995Z,99.99
2023-02-13T04:00:42.896Z,99.99
2023-02-13T04:01:42.823Z,99.99
2023-02-13T04:02:42.781Z,99.99
2023-02-13T04:03:42.761Z,99.99
2023-02-13T04:04:42.680Z,99.99
2023-02-13T04:05:42.610Z,99.99
2023-02-13T04:06:42.557Z,99.99
2023-02-13T04:07:42.474Z,99.99
2023-02-13T04:08:42.454Z,99.99
2023-02-13T04:09:42.381Z,99.99
2023-02-13T04:10:42.310Z,99.99
2023-02-13T04:11:42.233Z,99.99
2023-02-13T04:12:42.200Z,99.99
2023-02-13T04:13:42.131Z,99.99
2023-02-13T04:14:42.099Z,99.99
2023-02-13T04:15:42.017Z,99.99
2023-02-13T04:16:42.023Z,99.99
2023-02-13T04:17:41.903Z,99.99
2023-02-13T04:18:41.837Z,99.99
2023-02-13T04:19:41.801Z,99.99
2023-02-13T04:20:41.700Z,99.99
2023-02-13T04:21:41.643Z,99.99
2023-02-13T04:22:41.610Z,99.99
2023-02-13T04:23:41.566Z,99.99
2023-02-13T04:24:41.483Z,99.99
2023-02-13T04:25:41.456Z,99.99
2023-02-13T04:26:41.363Z,99.99
2023-02-13T04:27:41.329Z,99.99
2023-02-13T04:28:41.322Z,99.99
2023-02-13T04:29:41.183Z,99.99
2023-02-13T04:30:41.191Z,99.99
2023-02-13T04:31:41.171Z,99.99
2023-02-13T04:32:41.032Z,99.99
2023-02-13T04:33:40.960Z,99.99
2023-02-13T04:34:40.901Z,99.99
2023-02-13T04:35:40.808Z,99.99
2023-02-13T04:36:40.779Z,99.99
2023-02-13T04:37:40.739Z,99.99
2023-02-13T04:38:40.661Z,99.99
2023-02-13T04:39:40.589Z,99.99
2023-02-13T04:40:40.570Z,99.99
2023-02-13T04:41:40.478Z,99.99
2023-02-13T04:42:40.416Z,99.99
2023-02-13T04:43:40.388Z,99.99
2023-02-13T04:44:40.299Z,99.99
2023-02-13T04:45:40.319Z,99.99
2023-02-13T04:46:40.157Z,99.99
2023-02-13T04:47:40.132Z,99.99
2023-02-13T04:48:40.075Z,99.99
2023-02-13T04:49:40.007Z,99.99
2023-02-13T04:50:39.964Z,99.99
2023-02-13T04:51:39.884Z,99.99
2023-02-13T04:52:39.807Z,99.99
2023-02-13T04:53:39.773Z,99.99
2023-02-13T04:54:39.732Z,99.99
2023-02-13T04:55:39.658Z,99.99
2023-02-13T04:56:39.603Z,99.99
2023-02-13T04:57:39.521Z,99.99
2023-02-13T04:58:39.502Z,99.99
2023-02-13T04:59:39.422Z,99.99
2023-02-13T05:00:39.336Z,99.99
2023-02-13T05:01:39.445Z,99.99
2023-02-13T05:02:39.708Z,99.99
2023-02-13T05:03:39.155Z,99.99
2023-02-13T05:04:39.139Z,99.99
2023-02-13T05:05:39.074Z,99.99
2023-02-13T05:06:39.074Z,99.99
2023-02-13T05:07:38.930Z,99.99
2023-02-13T05:08:38.884Z,99.99
2023-02-13T05:09:41.415Z,99.99
2023-02-13T05:10:38.761Z,99.99
2023-02-13T05:11:38.734Z,99.99
2023-02-13T05:12:38.643Z,99.99
2023-02-13T05:13:38.550Z,99.99
2023-02-13T05:14:38.518Z,99.99
2023-02-13T05:15:38.480Z,99.99
2023-02-13T05:16:38.367Z,99.99
2023-02-13T05:17:38.329Z,99.99
2023-02-13T05:18:38.297Z,99.99
2023-02-13T05:19:38.216Z,99.99
2023-02-13T05:20:38.180Z,99.99
2023-02-13T05:21:38.098Z,99.99
2023-02-13T05:22:38.058Z,99.99
2023-02-13T05:23:38.049Z,99.99
2023-02-13T05:24:37.910Z,99.99
2023-02-13T05:25:37.912Z,99.99
2023-02-13T05:26:37.843Z,99.99
2023-02-13T05:27:37.740Z,99.99
2023-02-13T05:28:37.811Z,99.99
2023-02-13T05:29:37.629Z,99.99
2023-02-13T05:30:37.613Z,99.99
2023-02-13T05:31:37.607Z,99.99
2023-02-13T05:32:37.466Z,99.99
2023-02-13T05:33:37.403Z,99.99
2023-02-13T05:34:37.325Z,99.99
2023-02-13T05:35:37.269Z,99.99
2023-02-13T05:36:37.230Z,99.99
2023-02-13T05:37:37.152Z,99.99
2023-02-13T05:38:37.110Z,99.99
2023-02-13T05:39:37.028Z,99.99
2023-02-13T05:40:36.966Z,99.99
2023-02-13T05:41:36.924Z,99.99
2023-02-13T05:42:36.821Z,99.99
2023-02-13T05:43:36.833Z,99.99
2023-02-13T05:44:36.720Z,99.99
2023-02-13T05:45:36.679Z,99.99
2023-02-13T05:46:36.663Z,99.99
2023-02-13T05:47:36.537Z,99.99
2023-02-13T05:48:36.494Z,99.99
2023-02-13T05:49:36.464Z,99.99
2023-02-13T05:50:36.369Z,99.99
2023-02-13T05:51:36.347Z,99.99
2023-02-13T05:52:36.263Z,99.99
2023-02-13T05:53:36.190Z,99.99
2023-02-13T05:54:36.128Z,99.99
2023-02-13T05:55:36.067Z,99.99
2023-02-13T05:56:36.035Z,99.99
2023-02-13T05:57:35.942Z,99.99
2023-02-13T05:58:35.892Z,99.99
2023-02-13T05:59:35.854Z,99.99
2023-02-13T06:00:35.777Z,99.99
2023-02-13T06:01:35.696Z,99.99
2023-02-13T06:02:35.704Z,99.99
2023-02-13T06:03:35.594Z,99.99
2023-02-13T06:04:35.558Z,99.99
2023-02-13T06:05:35.469Z,99.99
2023-02-13T06:06:35.415Z,99.99
2023-02-13T06:07:35.345Z,99.99
2023-02-13T06:08:35.318Z,99.99
2023-02-13T06:09:35.213Z,99.99
2023-02-13T06:10:35.175Z,99.99
2023-02-13T06:11:35.129Z,99.99
2023-02-13T06:12:35.029Z,99.99
2023-02-13T06:13:35.010Z,99.99
2023-02-13T06:14:34.944Z,99.99
2023-02-13T06:15:34.842Z,99.99
2023-02-13T06:16:34.814Z,99.99
2023-02-13T06:17:34.736Z,99.99
2023-02-13T06:18:34.718Z,99.99
2023-02-13T06:19:34.690Z,99.99
2023-02-13T06:20:34.562Z,99.99
2023-02-13T06:21:34.527Z,99.99
2023-02-13T06:22:34.471Z,99.99
2023-02-13T06:23:34.413Z,99.99
2023-02-13T06:24:34.350Z,99.99
2023-02-13T06:25:34.270Z,99.99
2023-02-13T06:26:34.243Z,99.99
2023-02-13T06:27:34.165Z,99.99
2023-02-13T06:28:34.171Z,99.99
2023-02-13T06:29:34.029Z,99.99
2023-02-13T06:30:34.022Z,99.99
2023-02-13T06:31:33.934Z,99.99
2023-02-13T06:32:33.850Z,99.99
2023-02-13T06:33:33.810Z,99.99
2023-02-13T06:34:33.764Z,99.99
2023-02-13T06:35:33.684Z,99.99
2023-02-13T06:36:33.619Z,99.99
2023-02-13T06:37:33.538Z,99.99
2023-02-13T06:38:33.540Z,99.99
2023-02-13T06:39:33.435Z,99.99
2023-02-13T06:40:33.393Z,99.99
2023-02-13T06:41:33.317Z,99.99
2023-02-13T06:42:33.261Z,99.99
2023-02-13T06:43:33.216Z,99.99
2023-02-13T06:44:33.141Z,99.99
2023-02-13T06:45:33.071Z,99.99
2023-02-13T06:46:33.080Z,99.99
2023-02-13T06:47:32.953Z,99.99
2023-02-13T06:48:32.933Z,99.99
2023-02-13T06:49:32.838Z,99.99
2023-02-13T06:50:32.772Z,99.99
2023-02-13T06:51:32.754Z,99.99
2023-02-13T06:52:32.660Z,99.99
2023-02-13T06:53:32.591Z,99.99
2023-02-13T06:54:46.360Z,99.99
2023-02-13T06:55:32.470Z,99.99
2023-02-13T06:56:32.481Z,99.99
2023-02-13T06:57:32.345Z,99.99
2023-02-13T06:58:32.302Z,99.99
2023-02-13T06:59:32.229Z,99.99
2023-02-13T07:00:32.279Z,99.99
2023-02-13T07:01:32.140Z,99.99
2023-02-13T07:02:32.104Z,99.99
2023-02-13T07:03:31.974Z,99.99
2023-02-13T07:04:31.948Z,99.99
2023-02-13T07:05:31.908Z,99.99
2023-02-13T07:06:33.472Z,99.99
2023-02-13T07:07:31.768Z,99.99
2023-02-13T07:08:31.676Z,99.99
2023-02-13T07:09:31.646Z,99.99
2023-02-13T07:10:31.583Z,99.99
2023-02-13T07:11:31.552Z,99.99
2023-02-13T07:12:31.470Z,99.99
2023-02-13T07:13:31.391Z,99.99
2023-02-13T07:14:31.358Z,99.99
2023-02-13T07:15:31.252Z,99.99
2023-02-13T07:16:31.330Z,99.99
2023-02-13T07:17:31.155Z,99.99
2023-02-13T07:18:31.132Z,99.99
2023-02-13T07:19:31.012Z,99.99
2023-02-13T07:20:30.980Z,99.99
2023-02-13T07:21:30.918Z,99.99
2023-02-13T07:22:30.866Z,99.99
2023-02-13T07:23:30.845Z,99.99
2023-02-13T07:24:30.726Z,99.99
2023-02-13T07:25:30.697Z,99.99
2023-02-13T07:26:30.651Z,99.99
2023-02-13T07:27:30.600Z,99.99
2023-02-13T07:28:30.564Z,99.99
2023-02-13T07:29:30.432Z,99.99
2023-02-13T07:30:30.532Z,99.99
2023-02-13T07:31:30.378Z,99.99
2023-02-13T07:32:30.265Z,99.99
2023-02-13T07:33:30.211Z,99.99
2023-02-13T07:34:30.169Z,99.99
2023-02-13T07:35:30.119Z,99.99
2023-02-13T07:36:30.054Z,99.99
2023-02-13T07:37:30.003Z,99.99
2023-02-13T07:38:29.929Z,99.99
2023-02-13T07:39:29.888Z,99.99
2023-02-13T07:40:30.002Z,99.99
2023-02-13T07:41:29.813Z,99.99
2023-02-13T07:42:29.720Z,99.99
2023-02-13T07:43:29.685Z,99.99
2023-02-13T07:44:29.596Z,99.99
2023-02-13T07:45:29.575Z,99.99
2023-02-13T07:46:29.587Z,99.99
2023-02-13T07:47:29.525Z,99.99
2023-02-13T07:48:29.393Z,99.99
2023-02-13T07:49:29.376Z,99.99
2023-02-13T07:50:29.492Z,99.99
2023-02-13T07:51:29.312Z,99.99
2023-02-13T07:52:29.238Z,99.99
2023-02-13T07:53:29.218Z,99.99
2023-02-13T07:54:29.138Z,99.99
2023-02-13T07:55:29.114Z,99.33
2023-02-13T07:56:29.045Z,98.61
2023-02-13T07:57:29.008Z,96.94
2023-02-13T07:58:28.975Z,96.17
2023-02-13T07:59:28.911Z,98.57
2023-02-13T08:00:28.890Z,98.42
2023-02-13T08:01:28.863Z,96.84
2023-02-13T08:02:28.785Z,96.99
2023-02-13T08:03:28.742Z,94.36
2023-02-13T08:04:28.706Z,94.36
2023-02-13T08:05:28.665Z,94.21
2023-02-13T08:06:28.615Z,94.50
2023-02-13T08:07:28.558Z,93.84
2023-02-13T08:08:28.526Z,93.59
2023-02-13T08:09:28.465Z,92.25
2023-02-13T08:10:28.464Z,91.16
2023-02-13T08:11:28.407Z,92.21
2023-02-13T08:12:28.349Z,92.02
2023-02-13T08:13:28.288Z,91.44
2023-02-13T08:14:28.270Z,91.35
2023-02-13T08:15:28.214Z,89.81
2023-02-13T08:16:28.271Z,90.48
2023-02-13T08:17:28.136Z,90.15
2023-02-13T08:18:28.121Z,89.76
2023-02-13T08:19:28.063Z,91.20
2023-02-13T08:20:28.165Z,91.05
2023-02-13T08:21:27.995Z,89.57
2023-02-13T08:22:27.919Z,86.88
2023-02-13T08:23:27.940Z,87.08
2023-02-13T08:24:27.859Z,86.60
2023-02-13T08:25:27.809Z,86.17
2023-02-13T08:26:27.792Z,86.60
2023-02-13T08:27:27.721Z,86.98
2023-02-13T08:28:27.705Z,86.25
2023-02-13T08:29:27.636Z,85.68
2023-02-13T08:30:27.725Z,85.01
2023-02-13T08:31:27.743Z,84.72
2023-02-13T08:32:27.528Z,84.25
2023-02-13T08:33:27.493Z,83.29
2023-02-13T08:34:27.464Z,83.48
2023-02-13T08:35:27.399Z,83.95
2023-02-13T08:36:27.402Z,84.25
2023-02-13T08:37:27.345Z,83.58
2023-02-13T08:38:27.306Z,84.09
2023-02-13T08:39:27.276Z,83.04
2023-02-13T08:40:27.352Z,81.51
2023-02-13T08:41:27.176Z,82.65
2023-02-13T08:42:27.160Z,81.70
2023-02-13T08:43:27.115Z,82.74
2023-02-13T08:44:27.028Z,81.82
2023-02-13T08:45:27.013Z,79.52
2023-02-13T08:46:27.105Z,78.98
2023-02-13T08:47:26.953Z,78.03
2023-02-13T08:48:26.876Z,77.75
2023-02-13T08:49:26.880Z,78.42
2023-02-13T08:50:26.833Z,77.84
2023-02-13T08:51:26.809Z,78.96
2023-02-13T08:52:26.760Z,78.99
2023-02-13T08:53:26.709Z,78.52
2023-02-13T08:54:26.696Z,77.08
2023-02-13T08:55:26.628Z,78.03
2023-02-13T08:56:26.612Z,77.13
2023-02-13T08:57:26.553Z,77.42
2023-02-13T08:58:26.554Z,76.32
2023-02-13T08:59:26.481Z,77.86
2023-02-13T09:00:26.432Z,78.63
2023-02-13T09:01:26.471Z,78.11
2023-02-13T09:02:26.394Z,78.30
2023-02-13T09:03:26.356Z,78.92
2023-02-13T09:04:26.289Z,78.82
2023-02-13T09:05:26.254Z,79.72
2023-02-13T09:06:26.236Z,77.51
2023-02-13T09:07:26.169Z,77.42
2023-02-13T09:08:26.132Z,77.13
2023-02-13T09:09:26.134Z,76.56
2023-02-13T09:10:26.071Z,77.33
2023-02-13T09:11:26.020Z,76.84
2023-02-13T09:12:26.196Z,76.84
2023-02-13T09:13:25.915Z,76.17
2023-02-13T09:14:25.915Z,76.14
2023-02-13T09:15:25.867Z,76.94
2023-02-13T09:16:25.837Z,75.79
2023-02-13T09:17:25.811Z,76.17
2023-02-13T09:18:25.728Z,75.60
2023-02-13T09:19:25.726Z,74.69
2023-02-13T09:20:25.685Z,74.85
2023-02-13T09:21:25.647Z,75.85
2023-02-13T09:22:25.606Z,75.90
2023-02-13T09:23:25.551Z,77.09
2023-02-13T09:24:25.547Z,77.04
2023-02-13T09:25:25.458Z,75.60
2023-02-13T09:26:25.447Z,74.31
2023-02-13T09:27:25.398Z,74.06
2023-02-13T09:28:25.398Z,74.87
2023-02-13T09:29:25.382Z,75.77
2023-02-13T09:30:25.505Z,74.46
2023-02-13T09:31:27.192Z,72.86
2023-02-13T09:32:25.191Z,71.81
2023-02-13T09:33:25.177Z,70.43
2023-02-13T09:34:25.166Z,71.71
2023-02-13T09:35:25.127Z,71.71
2023-02-13T09:36:25.070Z,71.17
2023-02-13T09:37:25.029Z,71.11
2023-02-13T09:38:24.981Z,68.80
2023-02-13T09:39:24.965Z,69.28
2023-02-13T09:40:24.889Z,69.34
2023-02-13T09:41:24.869Z,67.54
2023-02-13T09:42:24.842Z,68.92
2023-02-13T09:43:24.789Z,70.50
2023-02-13T09:44:24.862Z,70.11
2023-02-13T09:45:24.716Z,69.09
2023-02-13T09:46:24.730Z,68.96
2023-02-13T09:47:24.643Z,67.00
2023-02-13T09:48:24.580Z,66.58
2023-02-13T09:49:24.535Z,67.13
2023-02-13T09:50:24.534Z,66.10
2023-02-13T09:51:24.483Z,68.15
2023-02-13T09:52:24.438Z,70.17
2023-02-13T09:53:24.430Z,70.84
2023-02-13T09:54:24.367Z,69.97
2023-02-13T09:55:24.339Z,70.64
2023-02-13T09:56:24.312Z,70.26
2023-02-13T09:57:24.247Z,71.83
2023-02-13T09:58:24.310Z,70.72
2023-02-13T09:59:24.154Z,69.56
2023-02-13T10:00:24.135Z,70.07
2023-02-13T10:01:24.131Z,68.47
2023-02-13T10:02:24.040Z,69.24
2023-02-13T10:03:24.030Z,69.91
2023-02-13T10:04:24.002Z,69.24
2023-02-13T10:05:23.994Z,69.11
2023-02-13T10:06:23.903Z,70.29
2023-02-13T10:07:23.845Z,70.14
2023-02-13T10:08:23.807Z,68.21
2023-02-13T10:09:23.784Z,68.34
2023-02-13T10:10:23.755Z,69.84
2023-02-13T10:11:23.705Z,70.00
2023-02-13T10:12:23.643Z,70.92
2023-02-13T10:13:23.720Z,71.88
2023-02-13T10:14:23.579Z,71.88
2023-02-13T10:15:23.566Z,72.45
2023-02-13T10:16:23.626Z,72.97
2023-02-13T10:17:23.464Z,72.53
2023-02-13T10:18:23.414Z,71.61
2023-02-13T10:19:23.366Z,69.84
2023-02-13T10:20:23.348Z,70.32
2023-02-13T10:21:23.285Z,70.64
2023-02-13T10:22:23.321Z,71.35
2023-02-13T10:23:23.192Z,70.68
2023-02-13T10:24:23.166Z,69.95
2023-02-13T10:25:23.112Z,69.37
2023-02-13T10:26:23.083Z,69.27
2023-02-13T10:27:23.026Z,68.92
2023-02-13T10:28:23.016Z,66.58
2023-02-13T10:29:22.934Z,67.00
2023-02-13T10:30:22.898Z,68.91
2023-02-13T10:31:23.013Z,69.81
2023-02-13T10:32:22.927Z,69.27
2023-02-13T10:33:22.779Z,68.57
2023-02-13T10:34:22.748Z,68.89
2023-02-13T10:35:22.691Z,68.89
2023-02-13T10:36:22.647Z,68.79
2023-02-13T10:37:22.618Z,68.79
2023-02-13T10:38:22.554Z,68.25
2023-02-13T10:39:22.541Z,67.58
2023-02-13T10:40:22.435Z,68.15
2023-02-13T10:41:22.421Z,67.99
2023-02-13T10:42:22.351Z,67.51
2023-02-13T10:43:22.351Z,67.61
2023-02-13T10:44:22.318Z,67.51
2023-02-13T10:45:22.260Z,67.71
2023-02-13T10:46:22.274Z,66.91
2023-02-13T10:47:22.167Z,67.00
2023-02-13T10:48:22.114Z,67.74
2023-02-13T10:49:22.107Z,68.12
2023-02-13T10:50:22.042Z,68.89
2023-02-13T10:51:22.000Z,68.37
2023-02-13T10:52:21.954Z,68.34
2023-02-13T10:53:21.893Z,68.88
2023-02-13T10:54:21.823Z,69.56
2023-02-13T10:55:21.809Z,70.80
2023-02-13T10:56:21.779Z,70.36
2023-02-13T10:57:21.728Z,70.74
2023-02-13T10:58:21.673Z,70.78
2023-02-13T10:59:21.625Z,69.34
2023-02-13T11:00:21.583Z,68.37
2023-02-13T11:01:21.584Z,69.24
2023-02-13T11:02:21.491Z,69.24
2023-02-13T11:03:21.425Z,68.85
2023-02-13T11:04:21.427Z,68.82
2023-02-13T11:05:21.333Z,69.74
2023-02-13T11:06:21.341Z,70.61
2023-02-13T11:07:21.259Z,70.42
2023-02-13T11:08:21.201Z,70.96
2023-02-13T11:09:21.190Z,71.25
2023-02-13T11:10:21.126Z,72.97
2023-02-13T11:11:21.093Z,73.26
2023-02-13T11:12:21.057Z,72.97
2023-02-13T11:13:20.990Z,72.30
2023-02-13T11:14:20.985Z,72.39
2023-02-13T11:15:20.866Z,72.88
2023-02-13T11:16:20.877Z,72.07
2023-02-13T11:17:20.783Z,72.36
2023-02-13T11:18:20.744Z,72.42
2023-02-13T11:19:20.741Z,74.52
2023-02-13T11:20:20.665Z,75.29
2023-02-13T11:21:20.635Z,75.29
2023-02-13T11:22:20.517Z,75.48
2023-02-13T11:23:20.505Z,74.82
2023-02-13T11:24:20.431Z,73.88
2023-02-13T11:25:20.434Z,76.84
2023-02-13T11:26:20.339Z,76.65
2023-02-13T11:27:22.121Z,77.99
2023-02-13T11:28:20.320Z,77.36
2023-02-13T11:29:20.226Z,76.98
2023-02-13T11:30:20.179Z,76.79
2023-02-13T11:31:20.116Z,75.89
2023-02-13T11:32:20.168Z,76.75
2023-02-13T11:33:20.052Z,77.23
2023-02-13T11:34:19.949Z,76.65
2023-02-13T11:35:19.961Z,77.51
2023-02-13T11:36:19.893Z,77.86
2023-02-13T11:37:19.862Z,78.24
2023-02-13T11:38:19.781Z,79.39
2023-02-13T11:39:19.754Z,79.58
2023-02-13T11:40:19.672Z,77.72
2023-02-13T11:41:19.663Z,78.97
2023-02-13T11:42:19.604Z,78.78
2023-02-13T11:43:19.541Z,79.87
2023-02-13T11:44:19.465Z,79.39
2023-02-13T11:45:19.429Z,78.91
2023-02-13T11:46:19.442Z,78.14
2023-02-13T11:47:19.354Z,78.05
2023-02-13T11:48:19.290Z,79.00
2023-02-13T11:49:19.246Z,79.00
2023-02-13T11:50:19.205Z,78.91
2023-02-13T11:51:19.166Z,78.47
2023-02-13T11:52:19.080Z,77.99
2023-02-13T11:53:19.085Z,77.17
2023-02-13T11:54:18.973Z,76.08
2023-02-13T11:55:18.931Z,76.71
2023-02-13T11:56:18.934Z,77.19
2023-02-13T11:57:18.900Z,78.11
2023-02-13T11:58:18.839Z,79.83
2023-02-13T11:59:18.764Z,80.69
2023-02-13T12:00:18.683Z,80.25
2023-02-13T12:01:18.674Z,78.57
2023-02-13T12:02:18.649Z,77.90
2023-02-13T12:03:18.723Z,77.26
2023-02-13T12:04:18.544Z,76.69
2023-02-13T12:05:18.471Z,76.94
2023-02-13T12:06:18.433Z,76.65
2023-02-13T12:07:18.374Z,76.94
2023-02-13T12:08:18.305Z,76.84
2023-02-13T12:09:18.294Z,77.09
2023-02-13T12:10:18.213Z,78.24
2023-02-13T12:11:18.163Z,77.33
2023-02-13T12:12:18.151Z,76.62
2023-02-13T12:13:18.050Z,77.63
2023-02-13T12:14:18.017Z,79.54
2023-02-13T12:15:17.962Z,78.91
2023-02-13T12:16:17.928Z,79.00
2023-02-13T12:17:30.652Z,78.72
2023-02-13T12:18:17.812Z,78.28
2023-02-13T12:19:17.775Z,78.43
2023-02-13T12:20:17.749Z,78.19
2023-02-13T12:21:17.682Z,78.28
2023-02-13T12:22:17.651Z,77.51
2023-02-13T12:23:17.597Z,77.42
2023-02-13T12:24:17.553Z,77.09
2023-02-13T12:25:17.461Z,78.72
2023-02-13T12:26:17.448Z,79.00
2023-02-13T12:27:17.439Z,78.81
2023-02-13T12:28:17.380Z,79.20
2023-02-13T12:29:17.332Z,79.77
2023-02-13T12:30:17.241Z,78.05
2023-02-13T12:31:17.222Z,78.39
2023-02-13T12:32:17.131Z,78.97
2023-02-13T12:33:17.114Z,78.87
2023-02-13T12:34:17.030Z,79.35
2023-02-13T12:35:16.974Z,80.02
2023-02-13T12:36:16.941Z,80.06
2023-02-13T12:37:16.887Z,80.40
2023-02-13T12:38:16.845Z,78.87
2023-02-13T12:39:16.790Z,78.72
2023-02-13T12:40:16.727Z,78.01
2023-02-13T12:41:16.690Z,78.39
2023-02-13T12:42:16.631Z,79.69
2023-02-13T12:43:16.607Z,80.36
2023-02-13T12:44:16.538Z,81.60
2023-02-13T12:45:16.481Z,81.26
2023-02-13T12:46:16.498Z,81.07
2023-02-13T12:47:16.379Z,80.59
2023-02-13T12:48:16.356Z,80.02
2023-02-13T12:49:16.279Z,80.02
2023-02-13T12:50:16.225Z,80.17
2023-02-13T12:51:16.189Z,81.37
2023-02-13T12:52:16.123Z,81.60